Time;durP1;ratioP1;P1;durP2;ratioP2;P2;SDS_P1;SDS_P2;PMS_P1;PMS_P2;Temp;Humidity;BMP_temperature;BMP_pressure;BME280_temperature;BME280_humidity;BME280_pressure;Samples;Min_cycle;Max_cycle;Signal;HPM_P1;HPM_P2
2022/09/01 00:04:37;;;;;;;0.93;0.80;;;;;;;;;;6281066;22;20030;-88
2022/09/01 00:07:08;;;;;;;2.25;0.93;;;;;;;;;;6213315;23;20021;-89
2022/09/01 00:09:50;;;;;;;8.75;1.70;;;;;;;;;;6218026;23;20021;-89
2022/09/01 00:12:29;;;;;;;4.28;0.90;;;;;;;;;;6241401;22;20023;-88
2022/09/01 00:15:05;;;;;;;0.88;0.80;;;;;;;;;;6281369;22;20026;-89
2022/09/01 00:17:47;;;;;;;2.25;0.88;;;;;;;;;;6258320;22;20487;-89
2022/09/01 00:20:16;;;;;;;4.30;0.80;;;;;;;;;;6261640;22;20055;-89
2022/09/01 00:22:59;;;;;;;1.60;0.70;;;;;;;;;;6260732;22;20094;-89
2022/09/01 00:25:29;;;;;;;2.40;1.00;;;;;;;;;;6284598;22;20479;-88
2022/09/01 00:27:59;;;;;;;3.80;0.88;;;;;;;;;;6255084;22;20031;-87
2022/09/01 00:37:09;;;;;;;2.15;0.80;;;;;;;;;;6280884;22;20028;-89
2022/09/01 00:39:35;;;;;;;2.80;1.20;;;;;;;;;;6255082;22;20116;-89
2022/09/01 00:42:17;;;;;;;3.25;0.90;;;;;;;;;;6256315;22;20020;-93
2022/09/01 00:44:47;;;;;;;3.65;0.80;;;;;;;;;;6281524;22;20417;-89
2022/09/01 00:47:32;;;;;;;1.65;1.00;;;;;;;;;;6285237;22;20019;-92
2022/09/01 00:50:12;;;;;;;3.75;0.90;;;;;;;;;;6280536;22;20028;-91
2022/09/01 00:52:54;;;;;;;1.15;0.80;;;;;;;;;;6257379;22;20027;-88
2022/09/01 00:55:42;;;;;;;4.43;0.95;;;;;;;;;;6281276;22;20019;-93
2022/09/01 00:58:27;;;;;;;6.72;0.80;;;;;;;;;;6283009;22;20075;-91
2022/09/01 01:00:56;;;;;;;3.13;1.00;;;;;;;;;;6256677;22;20456;-92
2022/09/01 01:03:23;;;;;;;0.60;0.60;;;;;;;;;;6283863;22;20019;-90
2022/09/01 01:06:07;;;;;;;2.70;0.90;;;;;;;;;;6253957;22;20136;-90
2022/09/01 01:08:59;;;;;;;0.90;0.75;;;;;;;;;;6192201;23;20076;-91
2022/09/01 01:14:30;;;;;;;1.20;0.80;;;;;;;;;;6212618;23;20040;-89
2022/09/01 01:17:13;;;;;;;1.50;0.88;;;;;;;;;;6164952;23;20020;-87
2022/09/01 01:23:36;;;;;;;7.85;1.00;;;;;;;;;;6128201;23;20018;-91
2022/09/01 01:26:03;;;;;;;2.60;0.70;;;;;;;;;;6128351;23;20025;-88
2022/09/01 01:34:11;;;;;;;1.55;1.30;;;;;;;;;;6281979;22;20023;-90
2022/09/01 01:36:54;;;;;;;2.55;1.00;;;;;;;;;;6281653;22;20031;-88
2022/09/01 01:39:35;;;;;;;1.45;0.90;;;;;;;;;;6283585;22;20019;-90
2022/09/01 01:42:06;;;;;;;1.17;0.80;;;;;;;;;;6283420;22;20032;-91
2022/09/01 01:44:58;;;;;;;2.72;0.85;;;;;;;;;;6257886;22;20337;-91
2022/09/01 01:50:26;;;;;;;2.30;0.80;;;;;;;;;;6192078;23;20036;-91
2022/09/01 01:59:33;;;;;;;1.13;0.80;;;;;;;;;;6285756;22;20022;-92
2022/09/01 02:02:26;;;;;;;3.03;1.00;;;;;;;;;;6259048;22;20027;-91
2022/09/01 02:04:53;;;;;;;1.80;0.80;;;;;;;;;;6257499;22;20073;-91
2022/09/01 02:07:46;;;;;;;2.38;1.48;;;;;;;;;;6225003;23;20024;-90
2022/09/01 02:10:34;;;;;;;2.80;0.88;;;;;;;;;;6224162;23;20722;-90
2022/09/01 02:16:21;;;;;;;2.78;1.10;;;;;;;;;;6224161;23;20052;-90
2022/09/01 02:19:00;;;;;;;1.33;1.05;;;;;;;;;;6223756;23;20062;-89
2022/09/01 02:21:43;;;;;;;1.98;0.90;;;;;;;;;;6226489;23;20043;-88
2022/09/01 02:24:09;;;;;;;1.75;0.90;;;;;;;;;;6222698;23;20020;-90
2022/09/01 02:26:52;;;;;;;2.20;1.05;;;;;;;;;;6226785;23;20020;-89
2022/09/01 02:29:28;;;;;;;2.45;1.00;;;;;;;;;;6225675;23;20319;-89
2022/09/01 02:31:56;;;;;;;1.20;0.85;;;;;;;;;;6228405;23;20016;-89
2022/09/01 02:34:23;;;;;;;3.05;1.08;;;;;;;;;;6224263;23;20024;-89
2022/09/01 02:37:04;;;;;;;2.35;0.90;;;;;;;;;;6229012;23;20016;-89
2022/09/01 02:39:46;;;;;;;1.40;0.90;;;;;;;;;;6257231;22;20066;-89
2022/09/01 02:42:28;;;;;;;1.25;1.00;;;;;;;;;;6257680;22;20012;-89
2022/09/01 02:47:53;;;;;;;3.28;1.52;;;;;;;;;;6192717;23;20047;-89
2022/09/01 02:50:34;;;;;;;4.30;1.27;;;;;;;;;;6219224;23;20453;-90
2022/09/01 02:53:08;;;;;;;3.08;1.20;;;;;;;;;;6228326;22;20425;-85
2022/09/01 02:55:39;;;;;;;2.53;1.02;;;;;;;;;;6283055;22;20024;-88
2022/09/01 03:14:58;;;;;;;0.82;0.82;;;;;;;;;;6250691;22;20075;-91
2022/09/01 03:17:40;;;;;;;2.03;1.00;;;;;;;;;;6200387;23;20025;-89
2022/09/01 03:26:28;;;;;;;2.08;1.00;;;;;;;;;;6314221;22;20019;-89
2022/09/01 03:29:01;;;;;;;2.20;1.13;;;;;;;;;;6257857;22;20019;-90
2022/09/01 03:55:33;;;;;;;2.22;1.20;;;;;;;;;;6254966;23;20026;-92
2022/09/01 03:58:21;;;;;;;2.00;1.00;;;;;;;;;;6226540;23;20024;-90
2022/09/01 04:07:45;;;;;;;2.35;1.20;;;;;;;;;;6280643;22;20031;-90
2022/09/01 04:19:31;;;;;;;1.75;1.30;;;;;;;;;;6313866;22;20529;-89
2022/09/01 04:28:11;;;;;;;1.65;1.45;;;;;;;;;;6160609;23;20334;-88
2022/09/01 04:30:41;;;;;;;2.47;1.55;;;;;;;;;;6198379;23;20026;-87
2022/09/01 04:33:26;;;;;;;;;;;;;;;;;;;;;
2022/09/01 04:36:30;;;;;;;2.78;1.40;;;;;;;;;;6226891;23;20494;-88
2022/09/01 04:42:35;;;;;;;3.03;1.70;;;;;;;;;;6219570;23;20032;-87
2022/09/01 04:45:27;;;;;;;3.55;1.40;;;;;;;;;;6172728;23;20024;-88
2022/09/01 04:47:54;;;;;;;1.83;1.73;;;;;;;;;;6242351;22;20027;-86
2022/09/01 04:50:34;;;;;;;3.33;1.75;;;;;;;;;;6255634;22;20055;-88
2022/09/01 04:53:17;;;;;;;5.15;1.63;;;;;;;;;;6228235;22;20348;-87
2022/09/01 04:56:18;;;;;;;2.22;1.60;;;;;;;;;;6281975;22;20372;-87
2022/09/01 04:59:01;;;;;;;1.48;1.30;;;;;;;;;;6281381;22;20042;-90
2022/09/01 05:01:43;;;;;;;1.90;1.70;;;;;;;;;;6283670;22;20015;-87
2022/09/01 05:07:53;;;;;;;4.18;1.80;;;;;;;;;;6282471;22;20054;-90
2022/09/01 05:17:37;;;;;;;2.17;1.77;;;;;;;;;;6157955;23;20072;-89
2022/09/01 05:20:15;;;;;;;2.30;1.50;;;;;;;;;;6128935;23;20036;-88
2022/09/01 05:23:03;;;;;;;2.50;1.70;;;;;;;;;;6131985;23;20031;-88
2022/09/01 05:25:50;;;;;;;3.80;1.50;;;;;;;;;;6103502;23;20097;-89
2022/09/01 05:28:24;;;;;;;6.60;2.00;;;;;;;;;;6218029;22;20023;-89
2022/09/01 05:31:05;;;;;;;3.80;1.50;;;;;;;;;;6248353;22;20023;-89
2022/09/01 05:33:48;;;;;;;1.85;1.50;;;;;;;;;;6226954;22;20412;-89
2022/09/01 05:36:16;;;;;;;2.13;1.40;;;;;;;;;;6250645;22;20019;-88
2022/09/01 05:38:43;;;;;;;2.42;1.40;;;;;;;;;;6228411;22;20016;-88
2022/09/01 05:41:13;;;;;;;2.50;1.70;;;;;;;;;;6251630;22;20016;-90
2022/09/01 05:43:58;;;;;;;3.55;1.58;;;;;;;;;;6191718;23;20029;-90
2022/09/01 05:46:51;;;;;;;2.50;1.50;;;;;;;;;;6162174;23;20452;-89
2022/09/01 05:49:17;;;;;;;8.05;1.83;;;;;;;;;;6216703;23;20031;-86
2022/09/01 05:51:56;;;;;;;2.90;1.40;;;;;;;;;;6212332;23;20013;-90
2022/09/01 05:57:32;;;;;;;5.35;1.30;;;;;;;;;;6188918;23;20021;-89
2022/09/01 06:02:56;;;;;;;4.30;1.50;;;;;;;;;;6268931;22;20031;-88
2022/09/01 06:05:25;;;;;;;1.98;1.30;;;;;;;;;;6200047;23;20020;-89
2022/09/01 06:08:20;;;;;;;2.80;1.45;;;;;;;;;;6250753;23;20071;-88
2022/09/01 06:19:11;;;;;;;3.33;2.42;;;;;;;;;;6282642;22;20051;-85
2022/09/01 06:21:41;;;;;;;2.45;1.67;;;;;;;;;;6254084;22;20020;-87
2022/09/01 06:24:19;;;;;;;3.65;1.77;;;;;;;;;;6225192;22;20059;-87
2022/09/01 06:26:45;;;;;;;6.13;1.63;;;;;;;;;;6251428;22;20027;-87
2022/09/01 06:29:30;;;;;;;2.05;1.77;;;;;;;;;;6278976;22;20451;-86
2022/09/01 06:32:11;;;;;;;4.80;1.80;;;;;;;;;;6255237;22;20486;-86
2022/09/01 06:35:10;;;;;;;2.33;1.80;;;;;;;;;;6251819;22;20023;-88
2022/09/01 06:38:11;;;;;;;4.30;1.90;;;;;;;;;;6161176;23;20028;-88
2022/09/01 06:40:39;;;;;;;5.63;2.10;;;;;;;;;;6099332;23;20019;-88
2022/09/01 06:43:42;;;;;;;3.22;2.15;;;;;;;;;;6126015;23;20089;-87
2022/09/01 06:46:38;;;;;;;2.88;1.77;;;;;;;;;;6213104;22;20023;-88
2022/09/01 06:49:04;;;;;;;3.50;3.05;;;;;;;;;;6262161;22;20023;-89
2022/09/01 06:51:51;;;;;;;2.35;2.08;;;;;;;;;;6237100;22;20059;-90
2022/09/01 06:54:18;;;;;;;6.25;2.03;;;;;;;;;;6263658;22;20435;-88
2022/09/01 06:56:58;;;;;;;2.25;1.90;;;;;;;;;;6233395;22;20028;-88
2022/09/01 06:59:40;;;;;;;1.90;1.73;;;;;;;;;;6202477;23;20050;-88
2022/09/01 07:02:07;;;;;;;1.90;1.80;;;;;;;;;;6253773;22;20032;-86
2022/09/01 07:04:38;;;;;;;7.25;1.90;;;;;;;;;;6199995;23;20027;-87
2022/09/01 07:07:13;;;;;;;2.47;2.00;;;;;;;;;;6226454;23;20020;-90
2022/09/01 07:10:13;;;;;;;2.55;2.03;;;;;;;;;;6198515;23;20038;-88
2022/09/01 07:12:54;;;;;;;4.80;2.00;;;;;;;;;;6221151;23;20023;-89
2022/09/01 07:19:07;;;;;;;8.75;1.95;;;17.20;99.90;;;;;;6160734;23;20081;-88
2022/09/01 07:21:37;;;;;;;2.17;1.90;;;;;;;;;;6159169;23;20022;-89
2022/09/01 07:24:20;;;;;;;2.67;2.05;;;;;;;;;;6185387;23;20051;-86
2022/09/01 07:27:01;;;;;;;2.58;1.63;;;;;;;;;;6157609;23;20017;-88
2022/09/01 07:39:07;;;;;;;5.00;1.60;;;;;;;;;;6274599;22;20066;-87
2022/09/01 07:41:45;;;;;;;7.97;1.85;;;;;;;;;;6251332;22;20087;-87
2022/09/01 07:44:12;;;;;;;2.20;1.70;;;;;;;;;;6203256;22;20030;-86
2022/09/01 07:46:51;;;;;;;3.28;2.08;;;;;;;;;;6250053;22;20533;-86
2022/09/01 07:49:17;;;;;;;2.80;1.75;;;;;;;;;;6251010;22;20059;-87
2022/09/01 07:51:53;;;;;;;2.45;1.80;;;;;;;;;;6226307;22;20053;-88
2022/09/01 07:54:22;;;;;;;3.22;1.80;;;;;;;;;;6275459;22;20031;-86
2022/09/01 07:56:58;;;;;;;3.75;1.85;;;;;;;;;;6247620;22;20030;-88
2022/09/01 07:59:26;;;;;;;2.63;1.50;;;;;;;;;;6248018;22;20026;-87
2022/09/01 08:02:10;;;;;;;2.25;1.60;;;;;;;;;;6275328;22;20042;-87
2022/09/01 08:04:45;;;;;;;2.63;1.70;;;;;;;;;;6247913;22;20035;-88
2022/09/01 08:07:36;;;;;;;1.30;1.20;;;;;;;;;;6223056;22;20329;-86
2022/09/01 08:10:00;;;;;;;1.70;1.48;;;;;;;;;;6251390;22;20020;-87
2022/09/01 08:12:26;;;;;;;4.72;1.70;;;;;;;;;;6223797;22;20023;-87
2022/09/01 08:15:11;;;;;;;5.82;1.60;;;;;;;;;;6220935;22;20016;-86
2022/09/01 08:17:49;;;;;;;1.63;1.40;;;;;;;;;;6275106;22;20042;-86
2022/09/01 08:20:19;;;;;;;1.83;1.50;;;;;;;;;;6195523;22;20023;-86
2022/09/01 08:22:54;;;;;;;3.83;1.42;;;;;;;;;;6223302;22;20020;-87
2022/09/01 08:25:23;;;;;;;3.45;1.48;;;;;;;;;;6272841;22;20023;-86
2022/09/01 08:35:24;;;;;;;4.03;2.10;;;;;;;;;;6276114;22;20011;-87
2022/09/01 08:45:21;;;;;;;4.43;1.10;;;;;;;;;;6264528;22;20043;-87
2022/09/01 08:57:40;;;;;;;4.22;1.23;;;;;;;;;;6276552;22;20039;-87
2022/09/01 09:00:09;;;;;;;4.45;1.50;;;;;;;;;;6249350;22;20016;-88
2022/09/01 09:03:15;;;;;;;5.57;0.95;;;;;;;;;;6251254;22;20020;-87
2022/09/01 09:15:38;;;;;;;1.92;0.90;;;;;;;;;;6153433;23;20092;-86
2022/09/01 09:18:16;;;;;;;2.05;1.00;;;;;;;;;;6153181;23;20132;-87
2022/09/01 09:20:42;;;;;;;0.85;0.65;;;;;;;;;;6212440;22;20031;-88
2022/09/01 09:23:16;;;;;;;2.97;0.70;;;;;;;;;;6224769;22;20534;-87
2022/09/01 09:25:42;;;;;;;2.88;0.88;;;;;;;;;;6251016;22;20567;-87
2022/09/01 09:28:14;;;;;;;1.52;0.80;;;;;;;;;;6250986;22;20404;-87
2022/09/01 09:38:17;;;;;;;2.42;1.40;;;;;;;;;;6243335;23;20043;-86
2022/09/01 10:21:48;;;;;;;1.02;0.75;;;;;;;;;;6282970;22;20113;-93
2022/09/01 10:30:41;;;;;;;3.50;0.88;;;;;;;;;;6324789;22;20081;-94
2022/09/01 11:25:43;;;;;;;0.98;0.82;;;;;;;;;;6274552;21;1307610;-92
2022/09/01 11:37:26;;;;;;;2.13;0.60;;;;;;;;;;6262100;22;20044;-94
2022/09/01 12:30:39;;;;;;;;;;;;;;;;;;;;;
2022/09/01 14:50:40;;;;;;;2.65;0.70;;;;;;;;;;6249653;22;20086;31
2022/09/01 14:59:27;;;;;;;1.10;0.77;;;31.70;97.00;;;;;;6276256;22;20056;-94
2022/09/01 15:08:23;;;;;;;2.75;0.60;;;;;;;;;;6308260;22;20030;31
2022/09/01 17:45:33;;;;;;;2.50;0.60;;;;;;;;;;6253230;22;20023;-95
2022/09/01 18:10:57;;;;;;;6.55;0.75;;;;;;;;;;6225421;22;20024;-92
2022/09/01 18:13:38;;;;;;;5.32;0.75;;;;;;;;;;6243194;22;20016;-88
2022/09/01 18:18:51;;;;;;;12.15;0.95;;;;;;;;;;6233413;22;20029;-94
2022/09/01 19:14:51;;;;;;;1.80;0.90;;;;;;;;;;6208422;22;20044;-91
2022/09/01 21:13:23;;;;;;;2.88;0.93;;;;;;;;;;6286836;22;20455;-92
2022/09/01 21:32:47;;;;;;;2.50;1.15;;;;;;;;;;6287179;22;20014;-92
2022/09/01 21:37:56;;;;;;;11.80;1.33;;;;;;;;;;6258452;22;20032;-90
2022/09/01 22:02:52;;;;;;;2.20;1.10;;;;;;;;;;6298080;22;20066;-91
2022/09/01 22:08:54;;;;;;;4.45;1.40;;;;;;;;;;6232209;22;20058;-89
2022/09/01 22:35:19;;;;;;;2.28;1.13;;;;;;;;;;6164072;23;20025;-89
2022/09/01 22:45:23;;;;;;;3.03;0.93;;;;;;;;;;6254452;23;20089;-92
2022/09/01 23:11:33;;;;;;;6.22;1.15;;;;;;;;;;6172032;23;20025;-91
2022/09/01 23:52:49;;;;;;;1.63;0.80;;;;;;;;;;6258209;22;20070;-90
